Time;durP1;ratioP1;P1;durP2;ratioP2;P2;SDS_P1;SDS_P2;PMS_P1;PMS_P2;Temp;Humidity;BMP_temperature;BMP_pressure;BME280_temperature;BME280_humidity;BME280_pressure;Samples;Min_cycle;Max_cycle;Signal;HPM_P1;HPM_P2
2021/08/02 00:00:55;;;;;;;4.78;2.28;;;15.90;99.90;;;;;;4972613;28;20034;-84
2021/08/02 00:03:30;;;;;;;4.65;2.42;;;15.90;99.90;;;;;;4972055;28;20042;-84
2021/08/02 00:05:58;;;;;;;5.57;2.40;;;16.00;99.90;;;;;;4972384;28;20034;-85
2021/08/02 00:08:27;;;;;;;3.67;2.22;;;15.90;99.90;;;;;;4955182;28;20055;-84
2021/08/02 00:10:57;;;;;;;3.45;2.28;;;16.00;99.90;;;;;;4972241;28;20061;-84
2021/08/02 00:13:35;;;;;;;2.80;2.22;;;15.90;99.90;;;;;;4972566;28;20499;-83
2021/08/02 00:16:05;;;;;;;3.40;2.30;;;15.90;99.90;;;;;;4972080;28;20029;-85
2021/08/02 00:18:33;;;;;;;4.90;2.20;;;15.80;99.90;;;;;;4971592;28;20106;-85
2021/08/02 00:21:03;;;;;;;6.10;2.45;;;15.80;99.90;;;;;;4971581;28;20031;-85
2021/08/02 00:23:30;;;;;;;6.88;3.13;;;15.80;99.90;;;;;;4972685;28;20149;-83
2021/08/02 00:26:01;;;;;;;3.95;2.60;;;15.80;99.90;;;;;;4972475;28;20037;-85
2021/08/02 00:28:28;;;;;;;4.45;3.00;;;15.70;99.90;;;;;;4972170;28;20445;-85
2021/08/02 00:30:55;;;;;;;4.13;2.53;;;15.70;99.90;;;;;;4972154;28;20027;-84
2021/08/02 00:33:21;;;;;;;6.75;2.65;;;15.80;99.90;;;;;;4971714;28;20094;-85
2021/08/02 00:36:11;;;;;;;5.07;2.90;;;15.70;99.90;;;;;;4955191;28;20483;-84
2021/08/02 00:38:49;;;;;;;7.20;2.67;;;15.80;99.90;;;;;;4952877;29;20055;-85
2021/08/02 00:41:47;;;;;;;4.38;2.60;;;15.80;99.90;;;;;;4948985;28;20016;-84
2021/08/02 00:44:44;;;;;;;4.75;2.97;;;15.90;99.90;;;;;;4956134;28;20030;-85
2021/08/02 00:47:16;;;;;;;7.00;2.90;;;15.90;99.90;;;;;;4958358;28;20042;-84
2021/08/02 00:49:55;;;;;;;4.53;2.47;;;15.90;99.90;;;;;;4971904;28;20444;-85
2021/08/02 00:52:22;;;;;;;3.03;2.65;;;16.00;99.90;;;;;;4972355;28;20034;-85
2021/08/02 00:54:49;;;;;;;2.95;2.45;;;16.10;99.90;;;;;;4972252;28;20394;-85
2021/08/02 00:57:17;;;;;;;4.20;2.78;;;16.10;99.90;;;;;;4954103;28;20478;-84
2021/08/02 00:59:44;;;;;;;7.70;3.08;;;16.10;99.90;;;;;;4971953;28;20027;-84
2021/08/02 01:02:10;;;;;;;5.10;2.72;;;16.00;99.90;;;;;;4971849;28;20066;-83
2021/08/02 01:04:38;;;;;;;4.70;2.90;;;15.90;99.90;;;;;;4971793;28;20478;-85
2021/08/02 01:07:11;;;;;;;5.10;2.90;;;15.80;99.90;;;;;;4971877;28;20038;-85
2021/08/02 01:09:39;;;;;;;;;;;15.70;99.90;;;;;;4971427;28;20077;-85
2021/08/02 01:12:09;;;;;;;8.63;3.30;;;15.70;99.90;;;;;;4971664;28;19964;-84
2021/08/02 01:14:35;;;;;;;5.25;3.55;;;15.60;99.90;;;;;;4971027;28;20027;-84
2021/08/02 01:17:02;;;;;;;3.88;2.88;;;15.60;99.90;;;;;;4953751;28;20069;-85
2021/08/02 01:19:28;;;;;;;4.03;2.85;;;15.70;99.90;;;;;;4971854;28;20027;-85
2021/08/02 01:21:59;;;;;;;4.55;2.60;;;15.70;99.90;;;;;;4971828;28;20035;-85
2021/08/02 01:24:25;;;;;;;3.45;3.05;;;15.70;99.90;;;;;;4954546;28;20023;-85
2021/08/02 01:26:59;;;;;;;3.58;2.40;;;15.80;99.90;;;;;;4972219;28;20397;-85
2021/08/02 01:30:03;;;;;;;3.20;2.90;;;15.80;99.90;;;;;;4954322;28;20042;-85
2021/08/02 01:32:29;;;;;;;7.53;3.00;;;15.80;99.90;;;;;;4971722;28;20118;-84
2021/08/02 01:34:55;;;;;;;5.13;2.78;;;15.80;99.90;;;;;;4944168;29;20030;-84
2021/08/02 01:37:21;;;;;;;7.22;2.90;;;15.70;99.90;;;;;;4952046;29;20491;-84
2021/08/02 01:39:54;;;;;;;5.57;2.67;;;15.80;99.90;;;;;;4952076;29;20019;-85
2021/08/02 01:42:20;;;;;;;4.15;2.47;;;15.70;99.90;;;;;;4951920;29;20031;-85
2021/08/02 01:44:46;;;;;;;5.28;2.85;;;15.70;99.90;;;;;;4967929;28;20076;-85
2021/08/02 01:47:27;;;;;;;4.97;2.65;;;15.70;99.90;;;;;;4971321;28;20363;-83
2021/08/02 01:50:05;;;;;;;3.88;2.97;;;15.80;99.90;;;;;;4971843;28;20062;-85
2021/08/02 01:52:59;;;;;;;6.93;2.95;;;15.80;99.90;;;;;;4953871;28;20473;-84
2021/08/02 01:55:25;;;;;;;4.43;2.33;;;15.70;99.90;;;;;;4971039;28;20151;-85
2021/08/02 01:58:00;;;;;;;5.80;3.03;;;15.70;99.90;;;;;;4974019;28;20059;-85
2021/08/02 02:00:28;;;;;;;4.38;2.67;;;15.80;99.90;;;;;;4973752;28;20422;-84
2021/08/02 02:03:11;;;;;;;6.07;2.55;;;15.80;99.90;;;;;;4974752;28;20134;-85
2021/08/02 02:05:41;;;;;;;3.85;2.60;;;15.80;99.90;;;;;;4974818;28;20527;-83
2021/08/02 02:08:18;;;;;;;6.85;2.53;;;15.80;99.90;;;;;;4974693;28;20127;-85
2021/08/02 02:10:54;;;;;;;4.65;2.75;;;15.90;99.90;;;;;;4974403;28;20030;-82
2021/08/02 02:13:27;;;;;;;3.67;2.13;;;16.00;99.90;;;;;;4974410;28;20031;-82
2021/08/02 02:15:55;;;;;;;4.20;2.38;;;16.00;99.90;;;;;;4974293;28;20022;-85
2021/08/02 02:18:23;;;;;;;3.33;3.00;;;16.00;99.90;;;;;;4973954;28;20450;-80
2021/08/02 02:20:50;;;;;;;5.57;3.25;;;15.90;99.90;;;;;;4955312;29;20074;-85
2021/08/02 02:23:17;;;;;;;5.82;3.63;;;15.80;99.90;;;;;;4955331;29;20106;-84
2021/08/02 02:25:44;;;;;;;6.47;3.78;;;15.70;99.90;;;;;;4955457;29;20103;-84
2021/08/02 02:28:12;;;;;;;6.05;3.40;;;15.60;99.90;;;;;;4954516;29;20035;-82
2021/08/02 02:30:40;;;;;;;6.53;3.60;;;15.50;99.90;;;;;;4937718;29;20051;-84
2021/08/02 02:33:09;;;;;;;4.43;3.50;;;15.50;99.90;;;;;;4954415;29;20584;-83
2021/08/02 02:35:40;;;;;;;7.88;3.47;;;15.50;99.90;;;;;;4954820;29;20106;-84
2021/08/02 02:38:11;;;;;;;4.22;3.10;;;15.60;99.90;;;;;;4955084;29;20105;-85
2021/08/02 02:40:38;;;;;;;6.30;2.97;;;15.50;99.90;;;;;;4954723;29;20454;-84
2021/08/02 02:43:06;;;;;;;8.65;3.15;;;15.60;99.90;;;;;;4956424;28;20483;-84
2021/08/02 02:45:37;;;;;;;3.75;2.78;;;15.50;99.90;;;;;;4973789;28;20375;-83
2021/08/02 02:48:04;;;;;;;7.38;2.72;;;15.50;99.90;;;;;;4973726;28;20122;-80
2021/08/02 02:50:30;;;;;;;5.50;3.30;;;15.50;99.90;;;;;;4974005;28;20521;-83
2021/08/02 02:52:57;;;;;;;7.10;3.10;;;15.60;99.90;;;;;;4956405;28;20061;-84
2021/08/02 02:55:25;;;;;;;3.97;3.10;;;15.60;99.90;;;;;;4973850;28;20030;-83
2021/08/02 02:57:52;;;;;;;3.65;2.83;;;15.60;99.90;;;;;;4973806;28;20023;-84
2021/08/02 03:00:19;;;;;;;4.20;2.75;;;15.60;99.90;;;;;;4971929;28;20062;-83
2021/08/02 03:02:48;;;;;;;7.25;3.00;;;15.70;99.90;;;;;;4974114;28;20055;-85
2021/08/02 03:05:16;;;;;;;4.95;3.10;;;15.70;99.90;;;;;;4972898;28;20510;-84
2021/08/02 03:07:43;;;;;;;8.10;3.30;;;15.70;99.90;;;;;;4973591;28;20035;-85
2021/08/02 03:10:12;;;;;;;5.72;3.00;;;15.80;99.90;;;;;;4973292;28;20038;-84
2021/08/02 03:12:38;;;;;;;5.40;3.20;;;15.80;99.90;;;;;;4973475;28;20525;-85
2021/08/02 03:15:04;;;;;;;6.05;3.42;;;15.80;99.90;;;;;;4972587;28;20031;-79
2021/08/02 03:17:30;;;;;;;5.18;4.03;;;15.70;99.90;;;;;;4972671;28;20031;-80
2021/08/02 03:19:56;;;;;;;9.90;4.72;;;15.60;99.90;;;;;;4973188;28;20034;-79
2021/08/02 03:22:28;;;;;;;6.18;4.47;;;15.50;99.90;;;;;;4973424;28;20030;-83
2021/08/02 03:25:18;;;;;;;5.15;4.40;;;15.40;99.90;;;;;;4973811;28;20478;-83
2021/08/02 03:28:04;;;;;;;6.03;4.55;;;15.30;99.90;;;;;;4973212;28;20018;-80
2021/08/02 03:30:33;;;;;;;7.57;5.13;;;15.30;99.90;;;;;;4972665;28;20046;-80
2021/08/02 03:33:00;;;;;;;6.63;5.28;;;15.30;99.90;;;;;;4973100;28;20586;-80
2021/08/02 03:35:26;;;;;;;9.43;5.30;;;15.40;99.90;;;;;;4958696;28;20031;-81
2021/08/02 03:37:53;;;;;;;8.98;6.00;;;15.50;99.90;;;;;;4953431;29;20030;-81
2021/08/02 03:40:19;;;;;;;7.53;5.10;;;15.50;99.90;;;;;;4953748;29;20514;-79
2021/08/02 03:42:46;;;;;;;6.40;5.20;;;15.50;99.90;;;;;;4949385;28;20098;-80
2021/08/02 03:45:13;;;;;;;11.38;5.22;;;15.50;99.90;;;;;;4932719;29;20035;-80
2021/08/02 03:47:42;;;;;;;8.35;5.82;;;15.50;99.90;;;;;;4934394;29;20170;-81
2021/08/02 03:50:09;;;;;;;12.38;5.55;;;15.50;99.90;;;;;;4932634;29;20035;-80
2021/08/02 03:52:35;;;;;;;9.93;5.95;;;15.50;99.90;;;;;;4933763;29;20032;-81
2021/08/02 03:55:03;;;;;;;12.07;6.60;;;15.60;99.90;;;;;;4934689;29;20039;-80
2021/08/02 03:57:31;;;;;;;6.85;5.00;;;15.60;99.90;;;;;;4934069;29;20028;-80
2021/08/02 03:59:56;;;;;;;5.47;4.70;;;15.70;99.90;;;;;;4932453;29;20039;-79
2021/08/02 04:02:22;;;;;;;6.57;4.90;;;15.70;99.90;;;;;;4933643;29;20052;-81
2021/08/02 04:04:48;;;;;;;6.53;4.57;;;15.70;99.90;;;;;;4932678;29;20044;-80
2021/08/02 04:07:13;;;;;;;6.63;4.68;;;15.70;99.90;;;;;;4933912;29;20031;-79
2021/08/02 04:09:39;;;;;;;8.38;4.32;;;15.70;99.90;;;;;;4932366;29;20035;-79
2021/08/02 04:12:05;;;;;;;8.63;4.50;;;15.70;99.90;;;;;;4932532;29;20062;-79
2021/08/02 04:14:31;;;;;;;11.65;4.53;;;15.70;99.90;;;;;;4933842;29;20024;-79
2021/08/02 04:16:56;;;;;;;5.10;4.53;;;15.60;99.90;;;;;;4932971;29;20484;-80
2021/08/02 04:19:22;;;;;;;9.60;4.28;;;15.60;99.90;;;;;;4933585;29;20043;-79
2021/08/02 04:21:48;;;;;;;6.25;4.68;;;15.60;99.90;;;;;;4933642;29;20065;-79
2021/08/02 04:24:14;;;;;;;6.55;4.57;;;15.60;99.90;;;;;;4932282;29;20024;-79
2021/08/02 04:26:39;;;;;;;8.45;5.22;;;15.70;99.90;;;;;;4932534;29;20039;-79
2021/08/02 04:29:05;;;;;;;9.07;4.43;;;15.70;99.90;;;;;;4933212;29;20095;-80
2021/08/02 04:31:32;;;;;;;9.55;4.93;;;15.70;99.90;;;;;;4931956;29;20513;-80
2021/08/02 04:33:58;;;;;;;6.90;4.40;;;15.60;99.90;;;;;;4934890;29;20031;-79
2021/08/02 04:36:24;;;;;;;5.32;3.78;;;15.70;99.90;;;;;;4952404;29;20033;-79
2021/08/02 04:38:50;;;;;;;6.70;4.13;;;15.60;99.90;;;;;;4952857;29;20046;-79
2021/08/02 04:41:16;;;;;;;6.93;3.80;;;15.60;99.90;;;;;;4952156;29;20430;-79
2021/08/02 04:43:42;;;;;;;6.10;4.15;;;15.60;99.90;;;;;;4959580;28;20057;-79
2021/08/02 04:46:08;;;;;;;9.40;3.78;;;15.60;99.90;;;;;;4970818;28;20022;-79
2021/08/02 04:48:34;;;;;;;4.60;3.72;;;15.60;99.90;;;;;;4971300;28;20544;-79
2021/08/02 04:50:59;;;;;;;5.85;3.92;;;15.60;99.90;;;;;;4954168;28;20031;-78
2021/08/02 04:53:25;;;;;;;6.07;3.85;;;15.60;99.90;;;;;;4954266;28;20034;-79
2021/08/02 04:55:51;;;;;;;4.45;4.05;;;15.60;99.90;;;;;;4954094;28;20383;-78
2021/08/02 04:58:16;;;;;;;6.75;4.15;;;15.50;99.90;;;;;;4971608;28;20034;-79
2021/08/02 05:00:42;;;;;;;4.93;3.90;;;15.60;99.90;;;;;;4970234;28;20097;-78
2021/08/02 05:03:08;;;;;;;5.05;3.95;;;15.60;99.90;;;;;;4953919;28;20109;-78
2021/08/02 05:05:33;;;;;;;4.32;3.63;;;15.70;99.90;;;;;;4954645;28;20126;-79
2021/08/02 05:07:59;;;;;;;8.10;3.88;;;15.60;99.90;;;;;;4971710;28;20038;-80
2021/08/02 05:10:24;;;;;;;4.30;3.47;;;15.70;99.90;;;;;;4954112;28;20033;-78
2021/08/02 05:12:51;;;;;;;4.38;3.53;;;15.70;99.90;;;;;;4970350;28;20418;-78
2021/08/02 05:15:17;;;;;;;4.20;3.65;;;15.60;99.90;;;;;;4971158;28;20497;-80
2021/08/02 05:17:43;;;;;;;4.40;3.15;;;15.70;99.90;;;;;;4971244;28;20502;-78
2021/08/02 05:20:09;;;;;;;6.00;3.90;;;15.60;99.90;;;;;;4962622;28;20027;-80
2021/08/02 05:22:35;;;;;;;3.88;2.95;;;15.70;99.90;;;;;;4952222;29;20046;-79
2021/08/02 05:25:01;;;;;;;3.45;2.92;;;15.70;99.90;;;;;;4952097;29;20042;-78
2021/08/02 05:27:27;;;;;;;6.18;3.75;;;15.70;99.90;;;;;;4953466;28;20038;-78
2021/08/02 05:29:52;;;;;;;4.47;3.30;;;15.70;99.90;;;;;;4938832;29;20087;-79
2021/08/02 05:32:18;;;;;;;5.10;3.63;;;15.70;99.90;;;;;;4955557;29;20066;-78
2021/08/02 05:34:45;;;;;;;4.28;3.88;;;15.70;99.90;;;;;;4955901;29;20035;-78
2021/08/02 05:37:12;;;;;;;5.65;3.90;;;15.70;99.90;;;;;;4934965;29;20537;-79
2021/08/02 05:39:38;;;;;;;8.18;4.40;;;15.70;99.90;;;;;;4939224;29;20394;-79
2021/08/02 05:42:04;;;;;;;5.25;4.65;;;15.70;99.90;;;;;;4955333;28;20413;-79
2021/08/02 05:44:30;;;;;;;10.32;4.57;;;15.80;99.90;;;;;;4969050;28;20023;-80
2021/08/02 05:46:56;;;;;;;7.90;4.90;;;15.70;99.90;;;;;;4974846;28;20062;-80
2021/08/02 05:49:21;;;;;;;7.70;5.13;;;15.70;99.90;;;;;;4974811;28;20035;-79
2021/08/02 05:51:49;;;;;;;9.68;4.85;;;15.70;99.90;;;;;;4973439;28;20086;-80
2021/08/02 05:54:15;;;;;;;5.03;4.47;;;15.70;99.90;;;;;;4974406;28;20029;-79
2021/08/02 05:56:40;;;;;;;7.30;5.32;;;15.70;99.90;;;;;;4974697;28;20027;-79
2021/08/02 05:59:06;;;;;;;5.72;4.60;;;15.70;99.90;;;;;;4974647;28;20034;-79
2021/08/02 06:01:31;;;;;;;8.85;5.10;;;15.80;99.90;;;;;;4973300;28;20410;-79
2021/08/02 06:03:57;;;;;;;8.43;4.90;;;15.80;99.90;;;;;;4973972;28;20085;-79
2021/08/02 06:06:23;;;;;;;6.57;4.57;;;15.90;99.90;;;;;;4956974;28;20062;-78
2021/08/02 06:08:48;;;;;;;4.95;4.35;;;16.00;99.90;;;;;;4954059;28;20031;-79
2021/08/02 06:11:14;;;;;;;9.30;4.20;;;16.00;99.90;;;;;;4951888;28;20398;-80
2021/08/02 06:13:40;;;;;;;13.05;5.85;;;16.10;99.90;;;;;;4956452;28;20409;-80
2021/08/02 06:16:05;;;;;;;10.60;7.68;;;16.20;99.90;;;;;;4952714;28;20462;-78
2021/08/02 06:18:31;;;;;;;9.02;4.55;;;16.20;99.90;;;;;;4954196;28;20023;-78
2021/08/02 06:20:57;;;;;;;23.10;6.65;;;16.30;99.90;;;;;;4964453;28;20089;-79
2021/08/02 06:23:22;;;;;;;33.15;6.57;;;16.40;99.90;;;;;;4973950;28;20030;-79
2021/08/02 06:25:48;;;;;;;20.88;5.88;;;16.60;99.90;;;;;;4972873;28;20039;-80
2021/08/02 06:28:13;;;;;;;17.10;4.30;;;16.70;99.90;;;;;;4956833;28;20579;-80
2021/08/02 06:30:39;;;;;;;5.43;3.88;;;16.70;99.90;;;;;;4954518;28;20046;-79
2021/08/02 06:33:05;;;;;;;13.07;5.97;;;16.70;99.90;;;;;;4972065;28;20034;-78
2021/08/02 06:35:30;;;;;;;6.05;4.15;;;16.70;99.90;;;;;;4959501;28;20087;-79
2021/08/02 06:37:56;;;;;;;7.30;3.58;;;16.80;99.90;;;;;;4954962;28;20530;-80
2021/08/02 06:40:22;;;;;;;3.83;3.25;;;16.90;99.90;;;;;;4936147;28;20038;-80
2021/08/02 06:42:47;;;;;;;5.75;3.22;;;17.10;99.90;;;;;;4951952;28;20023;-79
2021/08/02 06:45:14;;;;;;;4.95;3.10;;;17.20;99.90;;;;;;4972390;28;20035;-79
2021/08/02 06:47:40;;;;;;;4.78;2.92;;;17.30;99.90;;;;;;4973892;28;20039;-79
2021/08/02 06:50:06;;;;;;;5.85;2.92;;;17.40;99.90;;;;;;4971950;28;20034;-79
2021/08/02 06:52:33;;;;;;;4.95;3.03;;;17.50;99.90;;;;;;4965433;28;20062;-80
2021/08/02 06:54:58;;;;;;;8.93;3.22;;;17.60;99.90;;;;;;4955303;28;20023;-79
2021/08/02 06:57:24;;;;;;;3.85;2.65;;;17.80;99.90;;;;;;4936515;28;20411;-77
2021/08/02 06:59:57;;;;;;;5.47;2.80;;;17.80;99.90;;;;;;4953518;28;20411;-79
2021/08/02 07:02:23;;;;;;;;;;;17.80;99.90;;;;;;4952066;28;20405;-76
2021/08/02 07:04:49;;;;;;;7.82;2.75;;;17.70;99.90;;;;;;4938237;29;19922;-81
2021/08/02 07:07:14;;;;;;;7.70;3.53;;;17.60;99.90;;;;;;4935289;29;20114;-79
2021/08/02 07:09:40;;;;;;;9.05;3.67;;;17.60;99.90;;;;;;4950779;28;20063;-82
2021/08/02 07:12:06;;;;;;;3.92;2.70;;;17.60;99.90;;;;;;4952787;28;20398;-80
2021/08/02 07:14:32;;;;;;;4.13;2.70;;;17.70;99.90;;;;;;4952671;29;20019;-81
2021/08/02 07:16:57;;;;;;;5.45;2.90;;;17.90;99.90;;;;;;4953044;28;20038;-79
2021/08/02 07:19:23;;;;;;;3.92;2.72;;;18.40;99.90;;;;;;4937553;28;20509;-81
2021/08/02 07:21:49;;;;;;;3.53;2.50;;;18.60;99.90;;;;;;4951964;28;20042;-80
2021/08/02 07:24:14;;;;;;;5.45;2.22;;;18.70;99.90;;;;;;4952265;29;20034;-80
2021/08/02 07:26:40;;;;;;;4.07;1.92;;;18.70;99.90;;;;;;4951490;28;20518;-83
2021/08/02 07:29:06;;;;;;;3.47;2.00;;;18.70;99.90;;;;;;4952731;28;20027;-80
2021/08/02 07:31:32;;;;;;;2.38;1.85;;;18.70;99.90;;;;;;4952410;28;20031;-83
2021/08/02 07:33:58;;;;;;;3.53;2.08;;;18.70;99.90;;;;;;4952660;29;20031;-81
2021/08/02 07:36:24;;;;;;;6.43;2.00;;;18.40;99.90;;;;;;4935435;29;20034;-82
2021/08/02 07:38:49;;;;;;;3.30;1.60;;;18.40;99.90;;;;;;4949582;28;20031;-82
2021/08/02 07:41:15;;;;;;;3.42;1.70;;;18.40;99.90;;;;;;4934545;28;20050;-82
2021/08/02 07:43:41;;;;;;;6.00;1.83;;;18.50;99.90;;;;;;4957107;28;20098;-83
2021/08/02 07:46:07;;;;;;;2.28;1.55;;;19.00;99.90;;;;;;4951875;28;20558;-84
2021/08/02 07:48:33;;;;;;;2.10;1.20;;;19.40;99.90;;;;;;4954590;28;20019;-85
2021/08/02 07:50:59;;;;;;;1.92;1.40;;;20.20;99.90;;;;;;4951411;28;20027;-83
2021/08/02 07:53:24;;;;;;;1.98;1.20;;;20.80;99.90;;;;;;4966674;28;20058;-84
2021/08/02 07:55:50;;;;;;;1.20;1.10;;;21.00;99.90;;;;;;4952459;28;20117;-82
2021/08/02 07:58:16;;;;;;;5.95;1.40;;;21.00;99.90;;;;;;4949911;28;20175;-84
2021/08/02 08:00:42;;;;;;;2.63;1.25;;;20.80;99.90;;;;;;4953213;28;20031;-83
2021/08/02 08:03:08;;;;;;;1.48;1.15;;;20.80;99.90;;;;;;4950242;28;20856;-82
2021/08/02 08:05:33;;;;;;;2.53;1.40;;;20.70;99.90;;;;;;4952620;28;20054;-89
2021/08/02 08:07:59;;;;;;;2.72;1.45;;;20.50;99.90;;;;;;4952045;28;20023;-86
2021/08/02 08:10:26;;;;;;;2.38;1.35;;;20.40;99.90;;;;;;4950804;28;20471;-85
2021/08/02 08:12:53;;;;;;;2.45;1.25;;;20.50;99.90;;;;;;4954620;28;20031;-83
2021/08/02 08:15:21;;;;;;;1.73;1.30;;;21.10;99.90;;;;;;4930508;28;20118;-82
2021/08/02 08:17:47;;;;;;;3.75;1.30;;;21.10;99.90;;;;;;4940298;29;20035;-82
2021/08/02 08:20:15;;;;;;;2.60;1.30;;;21.20;99.90;;;;;;4928961;29;20410;-82
2021/08/02 08:22:41;;;;;;;1.65;1.33;;;20.50;99.90;;;;;;4941152;28;20557;-83
2021/08/02 08:25:08;;;;;;;1.25;1.15;;;20.70;99.90;;;;;;4929496;29;20043;-84
2021/08/02 08:27:34;;;;;;;2.22;1.25;;;20.80;99.90;;;;;;4943648;28;20035;-81
2021/08/02 08:30:00;;;;;;;2.65;1.23;;;20.90;99.90;;;;;;4943947;28;20102;-83
2021/08/02 08:32:27;;;;;;;1.35;0.90;;;21.00;99.90;;;;;;4932737;28;20148;-82
2021/08/02 08:34:53;;;;;;;1.77;1.20;;;21.10;99.90;;;;;;4943189;29;20027;-82
2021/08/02 08:37:19;;;;;;;2.55;1.08;;;20.60;99.90;;;;;;4951401;28;20038;-83
2021/08/02 08:39:45;;;;;;;1.70;1.10;;;20.20;99.90;;;;;;4951270;28;20032;-82
2021/08/02 08:42:14;;;;;;;1.85;1.08;;;20.40;99.90;;;;;;4951038;28;20094;-81
2021/08/02 08:44:40;;;;;;;1.77;1.30;;;20.60;99.90;;;;;;4966020;28;21539;-81
2021/08/02 08:47:05;;;;;;;8.25;1.63;;;20.70;99.90;;;;;;4959299;28;20035;-85
2021/08/02 08:49:31;;;;;;;1.80;1.27;;;20.80;99.90;;;;;;4967751;28;20078;-82
2021/08/02 08:51:58;;;;;;;3.10;1.60;;;20.80;99.90;;;;;;4948551;29;20069;-82
2021/08/02 08:54:24;;;;;;;3.15;1.33;;;21.10;99.90;;;;;;4951184;28;20029;-82
2021/08/02 08:56:52;;;;;;;2.88;1.50;;;21.50;99.90;;;;;;4964099;28;20031;-85
2021/08/02 08:59:18;;;;;;;2.08;1.60;;;23.00;99.90;;;;;;4958559;28;20022;-85
2021/08/02 09:01:43;;;;;;;2.45;1.30;;;25.80;99.70;;;;;;4965373;28;20050;-83
2021/08/02 09:04:09;;;;;;;2.60;1.38;;;27.40;94.90;;;;;;4954997;29;20499;-84
2021/08/02 09:06:48;;;;;;;1.80;1.50;;;25.50;97.30;;;;;;4937853;29;20497;-81
2021/08/02 09:09:27;;;;;;;3.10;1.35;;;24.40;99.10;;;;;;4953346;28;20038;-84
2021/08/02 09:12:14;;;;;;;1.63;1.40;;;23.10;99.90;;;;;;4923910;28;20126;-82
2021/08/02 09:15:02;;;;;;;3.42;1.20;;;22.90;99.90;;;;;;4954322;28;20074;-85
2021/08/02 09:17:32;;;;;;;2.22;1.38;;;22.50;99.90;;;;;;4947895;28;20034;-82
2021/08/02 09:20:04;;;;;;;1.42;1.27;;;22.20;99.90;;;;;;4934355;28;20041;-81
2021/08/02 09:22:35;;;;;;;1.95;1.40;;;22.20;99.90;;;;;;4951901;28;20058;-84
2021/08/02 09:25:07;;;;;;;4.30;1.30;;;22.30;99.90;;;;;;4938490;29;20027;-85
2021/08/02 09:27:33;;;;;;;1.60;1.50;;;21.90;99.90;;;;;;4957747;28;20031;-84
2021/08/02 09:29:59;;;;;;;3.83;1.40;;;21.60;99.90;;;;;;4974838;28;20677;-88
2021/08/02 09:32:25;;;;;;;1.88;1.35;;;21.60;99.90;;;;;;4985791;28;20034;-81
2021/08/02 09:34:51;;;;;;;2.25;1.38;;;21.80;99.90;;;;;;4966894;28;20030;-83
2021/08/02 09:37:21;;;;;;;1.67;1.45;;;22.70;99.90;;;;;;4963840;28;20414;-84
2021/08/02 09:39:47;;;;;;;2.30;1.27;;;23.40;99.90;;;;;;4970103;28;20027;-84
2021/08/02 09:42:13;;;;;;;1.48;1.10;;;22.90;99.90;;;;;;4938561;29;20557;-86
2021/08/02 09:44:38;;;;;;;4.63;1.20;;;22.60;99.90;;;;;;4955415;29;20031;-85
2021/08/02 09:47:07;;;;;;;2.08;1.42;;;23.10;99.90;;;;;;4955259;28;20517;-85
2021/08/02 09:49:45;;;;;;;3.35;1.38;;;22.80;99.90;;;;;;4948429;28;20443;-83
2021/08/02 09:52:11;;;;;;;2.83;1.30;;;24.50;99.40;;;;;;4969210;28;20035;-80
2021/08/02 09:54:37;;;;;;;1.50;1.38;;;25.10;98.20;;;;;;4937550;29;20051;-84
2021/08/02 09:57:05;;;;;;;1.45;1.35;;;24.70;99.10;;;;;;4955992;28;20162;-82
2021/08/02 09:59:31;;;;;;;3.03;1.60;;;24.00;99.90;;;;;;4956839;28;20034;-83
2021/08/02 10:01:58;;;;;;;1.60;1.50;;;24.00;99.90;;;;;;4971227;28;20054;-82
2021/08/02 10:04:24;;;;;;;3.45;1.50;;;23.50;99.90;;;;;;4953477;29;20042;-82
2021/08/02 10:06:51;;;;;;;1.38;1.08;;;23.10;99.90;;;;;;4954178;28;20054;-82
2021/08/02 10:09:17;;;;;;;6.10;2.13;;;22.70;99.90;;;;;;4956207;28;20398;-83
2021/08/02 10:11:43;;;;;;;4.30;1.25;;;22.30;99.90;;;;;;4953805;28;20027;-83
2021/08/02 10:14:11;;;;;;;1.75;1.40;;;22.30;99.90;;;;;;4952827;28;20107;-83
2021/08/02 10:16:41;;;;;;;3.40;1.58;;;22.00;99.90;;;;;;4915705;29;20030;-83
2021/08/02 10:19:09;;;;;;;2.38;1.50;;;22.10;99.90;;;;;;4947848;28;20027;-82
2021/08/02 10:21:58;;;;;;;1.60;1.48;;;22.10;99.90;;;;;;4936435;29;20027;-82
2021/08/02 10:24:24;;;;;;;2.45;1.58;;;22.00;99.90;;;;;;4944750;29;20035;-83
2021/08/02 10:26:58;;;;;;;2.42;1.70;;;22.00;99.90;;;;;;4953507;28;20039;-83
2021/08/02 10:29:25;;;;;;;3.67;1.85;;;21.80;99.90;;;;;;4934678;29;20023;-83
2021/08/02 10:31:51;;;;;;;2.40;1.50;;;22.00;99.90;;;;;;4932465;28;20577;-81
2021/08/02 10:34:19;;;;;;;3.28;1.58;;;22.50;99.90;;;;;;4956994;28;20030;-81
2021/08/02 10:37:01;;;;;;;2.40;1.40;;;22.70;99.90;;;;;;4954377;28;20020;-84
2021/08/02 10:39:29;;;;;;;2.00;1.50;;;22.40;99.90;;;;;;4953960;28;20430;-82
2021/08/02 10:42:10;;;;;;;4.18;1.73;;;22.40;99.90;;;;;;4937130;28;20031;-83
2021/08/02 10:44:36;;;;;;;4.13;1.60;;;22.60;99.90;;;;;;4934937;29;20024;-82
2021/08/02 10:47:05;;;;;;;4.80;1.70;;;22.30;99.90;;;;;;4944198;28;20415;-82
2021/08/02 10:49:30;;;;;;;1.35;1.20;;;21.70;99.90;;;;;;4963875;28;20098;-83
2021/08/02 10:51:56;;;;;;;1.67;1.30;;;21.40;99.90;;;;;;4946978;29;20126;-82
2021/08/02 10:54:23;;;;;;;2.55;1.10;;;21.00;99.90;;;;;;4935520;28;20486;-82
2021/08/02 10:56:49;;;;;;;15.38;3.05;;;20.40;99.90;;;;;;4968180;28;20026;-80
2021/08/02 10:59:19;;;;;;;6.88;2.28;;;19.00;99.90;;;;;;4946624;29;20483;-78
2021/08/02 11:01:49;;;;;;;8.88;2.88;;;18.10;99.90;;;;;;4958615;28;20062;-78
2021/08/02 11:04:17;;;;;;;6.28;2.67;;;17.70;99.90;;;;;;4944419;28;20046;-79
2021/08/02 11:06:48;;;;;;;6.20;2.05;;;17.60;99.90;;;;;;4944891;28;20045;-80
2021/08/02 11:09:15;;;;;;;5.13;2.03;;;17.70;99.90;;;;;;4931263;29;20062;-79
2021/08/02 11:11:41;;;;;;;7.57;2.88;;;17.90;99.90;;;;;;4944773;28;20082;-79
2021/08/02 11:14:20;;;;;;;7.35;2.85;;;18.40;99.90;;;;;;4930095;29;20027;-79
2021/08/02 11:16:50;;;;;;;6.13;1.73;;;18.90;99.90;;;;;;4931360;29;20038;-78
2021/08/02 11:19:28;;;;;;;5.47;1.60;;;19.60;99.90;;;;;;4930032;28;20019;-79
2021/08/02 11:21:57;;;;;;;4.15;1.80;;;20.80;99.90;;;;;;4944906;29;20035;-80
2021/08/02 11:24:24;;;;;;;4.32;1.35;;;21.30;99.90;;;;;;4931743;29;20168;-79
2021/08/02 11:26:55;;;;;;;2.15;1.17;;;22.30;99.90;;;;;;4949126;28;20085;-79
2021/08/02 11:29:29;;;;;;;3.33;1.17;;;23.20;99.90;;;;;;4946616;28;20053;-83
2021/08/02 11:31:57;;;;;;;0.93;0.70;;;24.80;99.90;;;;;;4946685;28;20035;-79
2021/08/02 11:34:24;;;;;;;3.30;1.80;;;25.10;97.70;;;;;;4931945;29;20027;-82
2021/08/02 11:37:00;;;;;;;6.40;1.90;;;24.50;99.70;;;;;;4947582;28;20062;-82
2021/08/02 11:39:26;;;;;;;1.30;1.00;;;23.70;99.90;;;;;;4934480;29;20041;-80
2021/08/02 11:42:03;;;;;;;4.13;2.33;;;23.30;99.90;;;;;;4937104;29;20121;-81
2021/08/02 11:44:29;;;;;;;1.58;1.27;;;22.80;99.90;;;;;;4946628;28;20051;-81
2021/08/02 11:46:56;;;;;;;0.95;0.63;;;23.00;99.10;;;;;;4946106;28;20031;-80
2021/08/02 11:49:23;;;;;;;0.85;0.80;;;23.80;98.60;;;;;;4945331;28;20023;-81
2021/08/02 11:51:49;;;;;;;1.30;0.55;;;24.80;98.20;;;;;;4934855;29;20123;-81
2021/08/02 11:54:19;;;;;;;1.23;0.60;;;25.40;95.50;;;;;;4936777;28;20078;-82
2021/08/02 11:56:45;;;;;;;1.40;0.80;;;24.70;96.20;;;;;;4934500;28;20474;-82
2021/08/02 11:59:22;;;;;;;2.72;0.70;;;24.60;95.90;;;;;;4945596;28;20046;-80
2021/08/02 12:01:49;;;;;;;1.02;0.77;;;24.50;96.60;;;;;;4943405;28;20066;-80
2021/08/02 12:04:16;;;;;;;1.08;0.98;;;24.10;97.00;;;;;;4943384;29;20046;-79
2021/08/02 12:06:59;;;;;;;1.33;0.70;;;23.60;99.30;;;;;;4944568;28;20035;-81
2021/08/02 12:09:44;;;;;;;1.63;1.00;;;23.40;98.70;;;;;;4945449;28;20027;-80
2021/08/02 12:12:23;;;;;;;0.98;0.70;;;23.40;99.90;;;;;;4947425;28;20039;-83
2021/08/02 12:14:48;;;;;;;1.98;1.48;;;23.50;99.10;;;;;;4946850;28;20031;-83
2021/08/02 12:17:14;;;;;;;2.65;0.90;;;23.70;98.10;;;;;;4936642;29;20391;-79
2021/08/02 12:19:52;;;;;;;1.13;0.70;;;23.70;99.40;;;;;;4945262;28;20567;-80
2021/08/02 12:22:20;;;;;;;1.15;0.80;;;23.70;97.40;;;;;;4946188;28;20534;-80
2021/08/02 12:24:49;;;;;;;3.95;0.80;;;23.20;99.30;;;;;;4928124;28;20062;-85
2021/08/02 12:27:17;;;;;;;1.23;0.75;;;23.40;98.40;;;;;;4945928;28;20035;-85
2021/08/02 12:29:43;;;;;;;1.38;0.60;;;23.30;97.90;;;;;;4948429;28;20029;-80
2021/08/02 12:32:09;;;;;;;2.90;0.47;;;23.40;96.30;;;;;;4943923;28;20066;-82
2021/08/02 12:34:34;;;;;;;0.80;0.70;;;23.50;97.00;;;;;;4933771;29;20027;-80
2021/08/02 12:37:01;;;;;;;2.38;0.70;;;23.30;97.80;;;;;;4943936;28;20031;-82
2021/08/02 12:39:29;;;;;;;3.30;0.60;;;23.00;97.70;;;;;;4933560;29;20035;-79
2021/08/02 12:41:56;;;;;;;0.93;0.82;;;23.00;97.10;;;;;;4942428;28;20523;-80
2021/08/02 12:44:21;;;;;;;2.65;0.70;;;23.10;97.30;;;;;;4964109;28;20165;-80
2021/08/02 12:46:47;;;;;;;3.45;0.45;;;23.30;97.20;;;;;;4960212;28;20402;-81
2021/08/02 12:49:13;;;;;;;0.77;0.50;;;23.00;96.70;;;;;;4957474;28;20034;-81
2021/08/02 12:51:39;;;;;;;0.73;0.50;;;23.50;97.20;;;;;;4971332;28;20035;-81
2021/08/02 12:54:04;;;;;;;0.38;0.32;;;23.30;96.00;;;;;;4968701;28;20027;-80